Airport View

Enter AWOS ICAO identifier for current METAR.

ex. KFNL

KCKI 022310Z AUTO 15005KT 7SM CLR 27/14 A3008 RMK AO2

2 Jun 2020 23:10

Frequency: 124.775

Phone: 843-382-3000

Other Area AWOS: KMNI - KFLO - KSMS - KMKS

TAF KFLO 021720Z 0218/0318 23007KT P6SM FEW120 FM030000 20006KT P6SM FEW120